Главная страница
METAR-TAF:

METAR-TAF

Аэропорты :

Центральная вертолётная станция Манхэттена

Нью-Йорк, Нью-Йорк, США

широта: 40-42-04N, долгота: 074-00-32W, высота над уровнем моря: 2 м

Текущие метеонаблюдения

Эта сводка был подготовлена 15 минут назад, в 00:56 UTC
Ветер 8 Узел от восточно-северо-восточный
Температура 22°C
Влажность 53%
Давление 1021 hPa
Видимость: 16.1 км
ясное небо

METAR: KJRB 180056Z AUTO 07008KT 10SM CLR 22/12 A3014 RMK AO2 SLP206 T02170122

Время: 21:11 (01:11 UTC)


TAF: отсутствует

Метеонаблюдения и прогнозы для более 4000 аэропортов (сводки METAR и TAF).

Имеющиеся станции представлены на карте желтыми и красными точками.

Чтобы увидеть название станции, наведите на нее мышь.

Затем щелкните, чтобы увидеть метеонаблюдения и метеопрогнозы.

Управление картой: чтобы увеличить масштаб, щелкните зеленые кнопки с черным крестиком; чтобы уменьшить масштаб, щелкните зеленую кнопку с тире; для просмотра соседних карт щелкайте зеленые стрелки.


METAR-TAF: